Dover Air Force Base Dover US
ICAO: KDOV
IATA: DOV
Category: Large
Scheduled Services: No

Elevation: 24 ft
TransAlt. 18000 ft.

Airport Communications:
APP:132.425
ATIS:135.05
CLNC DEL:125.55
DEP:32.3
GND:118.875
PMSV METRO:34.2
COMD POST:134.1
PTD:134.1
MILLVILLE RDO:111.4
TWR:126.35

KDOV Zoom In..

If you have problems with the map follow the link
https://www.worldairports.se/pages/airport.php?
ICAO=KDOV

Runways:

(A) RW 01 length 9602 ft width 200 ft
ILS 109.95 / hdg 13

(B) RW 14 length 12903 ft width 150 ft
---- / hdg 136

(C) RW 19 length 9602 ft width 200 ft
ILS 111.90 / hdg 193

(D) RW 32 length 12903 ft width 150 ft
---- / hdg 316

Location; KDOV
Day. 16 / Time. 10.56 Zulu
* Altimeter: 29.66
* Temperature: 03° c. 37.4°f.
* Wind from: 270° Speed 18 kn with Gusts up to 25 kn.
Dewpoint: 02° c.
Visibility: 10 Statute Miles.
Clouds: Overcast 1100 ft.

KDOV 161056Z AUTO 27018G25KT 10SM OVC011 03/02 A2966 RMK AO2 PK WND 28029/01 RAE29DZB29E34 SLP047 P0001 T00290016 $


Wind From 270°
Speed 18 kn.

 
 
jpsmedia.com for Web Design worldairports.se 2018   terms of use